Time;durP1;ratioP1;P1;durP2;ratioP2;P2;SDS_P1;SDS_P2;PMS_P1;PMS_P2;Temp;Humidity;BMP_temperature;BMP_pressure;BME280_temperature;BME280_humidity;BME280_pressure;Samples;Min_cycle;Max_cycle;Signal;HPM_P1;HPM_P2
2022/06/16 00:00:27;;;;;;;5.03;4.13;;;;;;;18.06;50.91;94307.94;5010803;28;20190;-73
2022/06/16 00:02:53;;;;;;;5.55;3.85;;;;;;;17.95;50.89;94300.38;5010029;28;20064;-76
2022/06/16 00:05:22;;;;;;;7.05;4.22;;;;;;;18.05;51.08;94309.84;5009285;28;20042;-76
2022/06/16 00:07:48;;;;;;;6.78;4.53;;;;;;;18.03;51.13;94304.03;5011651;28;20525;-76
2022/06/16 00:10:14;;;;;;;4.82;4.32;;;;;;;17.96;51.22;94293.88;5010905;28;20025;-76
2022/06/16 00:12:40;;;;;;;4.75;3.78;;;;;;;17.83;51.23;94278.13;5008968;28;20030;-75
2022/06/16 00:15:09;;;;;;;5.15;4.43;;;;;;;17.99;50.94;94303.94;5009130;28;20096;-76
2022/06/16 00:17:35;;;;;;;5.97;4.47;;;;;;;17.92;51.35;94287.59;5011102;28;20132;-77
2022/06/16 00:20:04;;;;;;;10.00;4.60;;;;;;;17.76;51.33;94281.41;5007775;28;20034;-76
2022/06/16 00:22:31;;;;;;;8.48;5.78;;;;;;;17.83;51.29;94295.06;5010410;28;20095;-76
2022/06/16 00:24:56;;;;;;;7.07;4.63;;;;;;;17.76;51.54;94289.50;5011030;28;20116;-75
2022/06/16 00:27:21;;;;;;;4.75;3.85;;;;;;;17.86;51.05;94286.28;5009873;28;20036;-76
2022/06/16 00:29:47;;;;;;;8.52;4.38;;;;;;;17.93;51.11;94305.34;5009359;28;20095;-75
2022/06/16 00:32:12;;;;;;;4.60;3.97;;;;;;;17.74;51.39;94283.69;5011210;28;20505;-75
2022/06/16 00:34:37;;;;;;;7.97;4.43;;;;;;;17.76;51.32;94297.56;5010791;28;20137;-76
2022/06/16 00:37:03;;;;;;;6.15;4.65;;;;;;;17.73;51.40;94290.19;5010648;28;20033;-76
2022/06/16 00:39:29;;;;;;;5.03;4.47;;;;;;;17.72;51.72;94294.00;5009191;28;20510;-75
2022/06/16 00:41:55;;;;;;;4.47;3.92;;;;;;;17.71;51.49;94295.13;5010206;28;20041;-76
2022/06/16 00:44:20;;;;;;;6.97;4.40;;;;;;;17.70;51.76;94306.25;5009454;28;20029;-75
2022/06/16 00:46:45;;;;;;;5.30;4.05;;;;;;;17.56;51.90;94290.50;5009697;28;20157;-75
2022/06/16 00:49:14;;;;;;;4.97;4.20;;;;;;;17.23;52.01;94241.63;5008525;28;20029;-74
2022/06/16 00:51:47;;;;;;;5.72;4.60;;;;;;;17.55;52.12;94291.66;5010438;28;20547;-76
2022/06/16 00:54:20;;;;;;;8.75;5.03;;;;;;;17.50;51.96;94278.47;5009314;28;20038;-75
2022/06/16 00:56:47;;;;;;;6.20;4.93;;;;;;;17.30;52.10;94255.28;5009272;28;20311;-75
2022/06/16 00:59:13;;;;;;;6.18;4.78;;;;;;;17.39;52.20;94269.34;5011605;28;20404;-75
2022/06/16 01:01:41;;;;;;;9.52;4.68;;;;;;;17.29;52.56;94253.69;5009226;28;20037;-76
2022/06/16 01:06:53;;;;;;;7.35;5.15;;;;;;;17.45;52.31;94270.66;5008361;28;20099;-75
2022/06/16 01:09:28;;;;;;;5.25;4.70;;;;;;;17.55;52.28;94288.97;5007011;28;20045;-75
2022/06/16 01:15:27;;;;;;;6.57;4.47;;;;;;;17.42;52.79;94285.53;5011658;28;20066;-75
2022/06/16 01:18:09;;;;;;;6.53;5.10;;;;;;;17.39;53.00;94286.25;5009265;28;20145;-76
2022/06/16 01:21:06;;;;;;;6.63;4.43;;;;;;;17.35;52.73;94274.63;5009028;28;20061;-77
2022/06/16 01:23:53;;;;;;;5.63;4.38;;;;;;;17.40;52.84;94287.03;5024847;28;20068;-75
2022/06/16 01:26:40;;;;;;;6.07;5.47;;;;;;;17.20;52.87;94267.31;5012360;28;20038;-75
2022/06/16 01:29:37;;;;;;;5.57;4.38;;;;;;;17.34;52.88;94285.72;5010859;28;20655;-76
2022/06/16 01:32:20;;;;;;;4.72;4.10;;;;;;;17.27;53.00;94288.19;5008819;28;20033;-75
2022/06/16 01:34:52;;;;;;;5.03;4.50;;;;;;;17.29;52.63;94286.75;5011428;28;20036;-75
2022/06/16 01:37:26;;;;;;;5.80;5.15;;;;;;;17.30;52.58;94282.16;5010687;28;20033;-75
2022/06/16 01:40:04;;;;;;;5.65;4.88;;;;;;;17.18;52.66;94264.94;5010825;28;20025;-75
2022/06/16 01:42:39;;;;;;;4.88;4.18;;;;;;;17.29;52.72;94275.22;5010288;28;20037;-76
2022/06/16 01:45:15;;;;;;;5.65;4.68;;;;;;;17.18;52.69;94259.56;5011040;28;20408;-75
2022/06/16 01:47:45;;;;;;;5.07;4.57;;;;;;;17.16;52.73;94256.44;5011746;28;20542;-75
2022/06/16 01:50:18;;;;;;;6.75;4.60;;;;;;;17.26;52.69;94267.84;5009538;28;20044;-75
2022/06/16 01:52:53;;;;;;;6.03;4.38;;;;;;;17.22;52.95;94258.88;5005842;28;20040;-75
2022/06/16 01:55:25;;;;;;;6.00;4.65;;;;;;;17.17;52.62;94252.63;5010244;28;20026;-76
2022/06/16 01:57:59;;;;;;;5.93;4.60;;;;;;;17.29;52.67;94264.47;5010902;28;20051;-75
2022/06/16 02:00:26;;;;;;;6.03;4.78;;;;;;;17.23;52.58;94257.75;5016450;28;20042;-75
2022/06/16 02:03:00;;;;;;;5.72;5.00;;;;;;;17.11;52.72;94253.97;5010320;28;20042;-75
2022/06/16 02:05:44;;;;;;;6.70;4.85;;;;;;;17.12;52.98;94257.44;5009345;28;20092;-77
2022/06/16 02:08:15;;;;;;;6.30;4.82;;;;;;;17.07;53.15;94261.16;5008295;28;20046;-76
2022/06/16 02:10:44;;;;;;;6.30;5.22;;;;;;;17.10;53.30;94275.81;5010011;28;20431;-75
2022/06/16 02:13:12;;;;;;;9.55;5.15;;;;;;;17.14;52.99;94269.47;5007707;28;20476;-76
2022/06/16 02:16:04;;;;;;;6.22;4.57;;;;;;;17.11;53.05;94278.16;5010608;28;20034;-75
2022/06/16 02:18:35;;;;;;;7.32;5.05;;;;;;;17.15;53.05;94273.72;5009755;28;20041;-76
2022/06/16 02:21:01;;;;;;;6.47;5.20;;;;;;;17.07;52.96;94269.22;5010667;28;20041;-75
2022/06/16 02:23:26;;;;;;;6.72;5.38;;;;;;;16.97;53.23;94244.75;5012443;28;20096;-75
2022/06/16 02:25:57;;;;;;;6.10;5.18;;;;;;;17.09;53.19;94277.72;5008711;28;20127;-75
2022/06/16 02:28:22;;;;;;;5.55;4.90;;;;;;;16.99;53.06;94266.69;5010469;28;20045;-75
2022/06/16 02:31:15;;;;;;;5.53;4.40;;;;;;;17.09;53.02;94277.72;5009468;28;20067;-75
2022/06/16 02:33:49;;;;;;;7.32;5.30;;;;;;;16.86;53.03;94252.53;5009507;28;20404;-75
2022/06/16 02:36:39;;;;;;;7.45;5.10;;;;;;;16.91;53.10;94270.31;5007791;28;20073;-75
2022/06/16 02:39:37;;;;;;;6.10;5.22;;;;;;;16.73;53.49;94259.03;5007068;28;20041;-75
2022/06/16 02:42:26;;;;;;;6.07;5.35;;;;;;;16.86;53.63;94287.44;5009089;28;20527;-75
2022/06/16 02:45:13;;;;;;;6.07;5.20;;;;;;;16.89;53.67;94289.44;5008727;28;20049;-75
2022/06/16 02:48:02;;;;;;;6.22;5.60;;;;;;;16.79;53.79;94279.19;5009514;28;20123;-76
2022/06/16 02:50:55;;;;;;;7.00;5.30;;;;;;;16.82;53.62;94277.72;5008607;28;20582;-75
2022/06/16 02:56:36;;;;;;;7.82;6.20;;;;;;;16.85;53.66;94298.53;5007627;28;20026;-75
2022/06/16 02:59:09;;;;;;;10.07;6.28;;;;;;;16.64;53.92;94271.84;5006135;28;20038;-75
2022/06/16 03:01:35;;;;;;;7.13;5.85;;;;;;;16.68;54.42;94304.94;5007962;28;20040;-74
2022/06/16 03:04:15;;;;;;;10.43;6.40;;;;;;;16.76;54.29;94301.34;5007547;28;20048;-75
2022/06/16 03:06:42;;;;;;;10.45;6.53;;;;;;;16.64;54.36;94293.31;5010835;28;20330;-75
2022/06/16 03:09:08;;;;;;;10.07;6.47;;;;;;;16.64;54.28;94277.19;5002886;28;20038;-75
2022/06/16 03:11:35;;;;;;;7.95;6.45;;;;;;;16.80;54.38;94299.56;4987625;28;20202;-76
2022/06/16 03:14:01;;;;;;;10.00;7.45;;;;;;;16.72;54.43;94279.00;4985598;28;20054;-76
2022/06/16 03:16:26;;;;;;;9.43;7.57;;;;;;;16.81;54.37;94287.69;4988185;28;20611;-75
2022/06/16 03:18:52;;;;;;;10.13;7.00;;;;;;;16.81;54.22;94276.16;5001345;28;20045;-75
2022/06/16 03:21:18;;;;;;;11.57;7.20;;;;;;;16.80;54.43;94288.81;4987997;28;20042;-75
2022/06/16 03:23:44;;;;;;;9.77;6.75;;;;;;;16.94;54.20;94294.59;4989170;28;20038;-75
2022/06/16 03:26:10;;;;;;;10.30;6.85;;;;;;;16.82;54.64;94275.81;5000061;28;20542;-76
2022/06/16 03:28:36;;;;;;;8.98;7.43;;;;;;;16.91;54.54;94281.84;5008537;28;20041;-75
2022/06/16 03:31:01;;;;;;;10.30;6.65;;;;;;;16.84;54.27;94270.88;5011394;28;20229;-75
2022/06/16 03:33:27;;;;;;;9.13;6.85;;;;;;;16.82;54.54;94267.75;5009255;28;20121;-75
2022/06/16 03:35:52;;;;;;;7.97;6.47;;;;;;;16.89;54.44;94277.91;5009425;28;20481;-76
2022/06/16 03:40:56;;;;;;;15.02;7.38;;;;;;;16.90;55.17;94293.69;5008693;28;20029;-75
2022/06/16 03:43:22;;;;;;;9.48;7.50;;;;;;;16.62;55.08;94236.50;5009010;28;20034;-75
2022/06/16 03:45:47;;;;;;;9.57;6.47;;;;;;;16.74;55.31;94260.63;5009074;28;20065;-75
2022/06/16 03:48:13;;;;;;;10.35;6.35;;;;;;;16.94;55.10;94289.22;5009269;28;20037;-75
2022/06/16 03:50:39;;;;;;;8.30;6.50;;;;;;;16.73;55.29;94259.84;5011306;28;20042;-75
2022/06/16 03:53:05;;;;;;;9.25;7.18;;;;;;;16.94;55.62;94286.53;5012654;28;20547;-75
2022/06/16 03:55:31;;;;;;;8.75;6.85;;;;;;;16.90;55.66;94288.34;5013268;28;20056;-75
2022/06/16 03:57:57;;;;;;;11.50;7.25;;;;;;;16.95;56.12;94292.69;5019432;28;20236;-76
2022/06/16 04:00:23;;;;;;;10.10;7.45;;;;;;;16.90;55.73;94284.84;5019199;28;20033;-76
2022/06/16 04:03:59;;;;;;;9.52;6.88;;;;;;;17.10;55.78;94294.63;5012691;28;20037;-75
2022/06/16 04:05:34;;;;;;;9.63;6.22;;;;;;;17.14;55.62;94295.53;5012515;28;20053;-75
2022/06/16 04:08:00;;;;;;;9.48;6.90;;;;;;;17.28;55.12;94301.31;5009699;28;20037;-76
2022/06/16 04:10:25;;;;;;;9.85;7.40;;;;;;;17.18;55.32;94275.69;5013236;28;20052;-75
2022/06/16 04:12:51;;;;;;;7.85;7.05;;;;;;;17.29;55.10;94296.72;5011610;28;20075;-75
2022/06/16 04:15:16;;;;;;;10.05;6.70;;;;;;;17.21;55.28;94278.84;5014215;28;20038;-75
2022/06/16 04:17:42;;;;;;;9.77;7.82;;;;;;;17.34;54.94;94304.53;5010761;28;20061;-75
2022/06/16 04:20:13;;;;;;;8.30;6.90;;;;;;;17.40;55.03;94298.56;5013299;28;20831;-75
2022/06/16 04:22:39;;;;;;;10.55;6.40;;;;;;;17.39;54.57;94304.28;5012761;28;20100;-76
2022/06/16 04:25:07;;;;;;;9.60;6.88;;;;;;;17.39;54.25;94282.78;5011414;28;20022;-75
2022/06/16 04:27:32;;;;;;;10.60;6.82;;;;;;;17.44;54.56;94293.28;5010751;28;20115;-75
2022/06/16 04:29:58;;;;;;;10.55;7.15;;;;;;;17.34;55.03;94277.66;5012737;28;20620;-75
2022/06/16 04:32:23;;;;;;;10.73;7.55;;;;;;;17.12;55.62;94252.06;5010640;28;20037;-75
2022/06/16 04:34:49;;;;;;;11.10;7.75;;;;;;;17.22;56.25;94299.19;5011549;28;20041;-75
2022/06/16 04:37:14;;;;;;;8.35;7.20;;;;;;;17.50;55.57;94292.66;5016104;28;20025;-75
2022/06/16 04:39:39;;;;;;;9.13;7.65;;;;;;;17.67;54.88;94290.78;5012073;28;20030;-74
2022/06/16 04:42:05;;;;;;;13.70;9.90;;;;;;;17.59;55.65;94289.84;5010496;28;20030;-74
2022/06/16 04:44:31;;;;;;;12.48;7.97;;;;;;;17.48;56.49;94299.53;5010510;28;20149;-74
2022/06/16 04:46:58;;;;;;;8.80;7.38;;;;;;;17.76;55.29;94299.47;5009787;28;20339;-74
2022/06/16 04:49:23;;;;;;;10.85;8.75;;;;;;;17.74;54.87;94286.38;5012634;28;20392;-74
2022/06/16 04:51:49;;;;;;;10.07;8.05;;;;;;;17.94;54.70;94301.50;5011522;28;22565;-74
2022/06/16 04:54:14;;;;;;;11.90;8.38;;;;;;;17.98;54.52;94291.63;5009287;28;20074;-74
2022/06/16 04:56:39;;;;;;;12.60;9.68;;;;;;;18.15;55.01;94305.84;5011949;28;20038;-74
2022/06/16 04:59:05;;;;;;;10.32;7.80;;;;;;;17.93;54.26;94264.97;5010544;28;20100;-74
2022/06/16 05:01:30;;;;;;;12.52;8.57;;;;;;;18.35;53.85;94305.56;5008454;28;20085;-75
2022/06/16 05:03:56;;;;;;;9.45;7.72;;;;;;;18.03;54.75;94298.66;5008884;28;20129;-76
2022/06/16 05:06:21;;;;;;;12.90;9.40;;;;;;;18.05;54.40;94280.22;5011642;28;20045;-76
2022/06/16 05:08:48;;;;;;;13.80;9.75;;;;;;;18.18;54.64;94294.38;5010250;28;20552;-76
2022/06/16 05:11:14;;;;;;;15.13;9.35;;;;;;;18.30;54.92;94307.72;5011564;28;20440;-76
2022/06/16 05:13:39;;;;;;;10.15;8.48;;;;;;;18.14;55.31;94301.59;5011552;28;20403;-75
2022/06/16 05:16:05;;;;;;;16.13;10.20;;;;;;;18.23;55.61;94297.59;5009090;28;20029;-76
2022/06/16 05:18:30;;;;;;;11.30;8.75;;;;;;;18.40;55.01;94277.56;5011571;28;20076;-76
2022/06/16 05:21:07;;;;;;;12.00;8.75;;;;;;;18.73;54.20;94286.03;5009671;28;20095;-75
2022/06/16 05:23:32;;;;;;;13.40;9.93;;;;;;;18.34;55.63;94287.03;5012131;28;20373;-76
2022/06/16 05:25:58;;;;;;;14.43;9.68;;;;;;;18.10;56.12;94284.56;5008962;28;20040;-76
2022/06/16 05:28:23;;;;;;;16.02;10.82;;;;;;;18.03;57.02;94304.81;5010042;28;20591;-75
2022/06/16 05:30:49;;;;;;;17.83;11.93;;;;;;;18.40;56.66;94302.59;5023366;28;20041;-75
2022/06/16 05:33:14;;;;;;;13.13;9.77;;;;;;;18.62;55.73;94287.69;5009338;28;20456;-76
2022/06/16 05:35:39;;;;;;;14.48;10.70;;;;;;;18.25;56.94;94289.94;5010597;28;20498;-76
2022/06/16 05:38:05;;;;;;;14.75;10.63;;;;;;;18.32;56.94;94300.09;5009836;28;20038;-76
2022/06/16 05:40:31;;;;;;;15.93;11.05;;;;;;;18.45;56.80;94299.63;5009389;28;20585;-76
2022/06/16 05:42:56;;;;;;;13.48;10.93;;;;;;;18.16;57.34;94285.88;5009804;28;20874;-76
2022/06/16 05:45:22;;;;;;;18.02;11.85;;;;;;;18.26;56.81;94267.28;5008102;28;20175;-75
2022/06/16 05:47:48;;;;;;;16.52;10.40;;;;;;;18.60;56.19;94314.19;5009195;28;20833;-76
2022/06/16 05:50:17;;;;;;;16.52;11.00;;;;;;;18.70;55.19;94320.94;5011822;28;20045;-76
2022/06/16 05:52:43;;;;;;;19.35;12.27;;;;;;;18.42;55.66;94283.41;5010708;28;20040;-75
2022/06/16 05:55:14;;;;;;;16.92;11.63;;;;;;;18.75;55.52;94316.09;5010237;28;20052;-75
2022/06/16 05:57:40;;;;;;;15.18;12.05;;;;;;;18.63;55.70;94316.19;5014971;28;20038;-75
2022/06/16 06:00:06;;;;;;;16.83;11.65;;;;;;;18.57;56.35;94312.22;5010480;28;20030;-75
2022/06/16 06:02:32;;;;;;;17.35;11.63;;;;;;;18.83;55.73;94317.81;5007967;28;20049;-76
2022/06/16 06:04:57;;;;;;;18.20;11.50;;;;;;;18.66;56.61;94287.78;5010156;28;20040;-76
2022/06/16 06:07:22;;;;;;;14.18;11.38;;;;;;;18.85;56.21;94291.28;5008517;28;20120;-76
2022/06/16 06:18:21;;;;;;;19.35;12.07;;;;;;;18.80;56.95;94310.44;5008195;28;20252;-75
2022/06/16 06:20:47;;;;;;;19.20;13.10;;;;;;;18.96;56.03;94312.31;5006260;28;20072;-76
2022/06/16 06:23:13;;;;;;;18.25;12.25;;;;;;;19.38;56.63;94317.75;5009154;28;20163;-76
2022/06/16 06:25:39;;;;;;;22.92;13.48;;;;;;;19.35;55.82;94319.25;5008236;28;20046;-76
2022/06/16 06:28:04;;;;;;;18.60;12.80;;;;;;;19.40;55.59;94310.09;5008806;28;20396;-75
2022/06/16 06:30:30;;;;;;;20.15;12.82;;;;;;;19.36;55.51;94307.31;5004201;28;20043;-76
2022/06/16 06:32:59;;;;;;;24.40;14.10;;;;;;;19.28;56.21;94319.09;5006156;28;20063;-75
2022/06/16 06:35:25;;;;;;;20.48;13.45;;;;;;;19.48;56.30;94323.38;5001944;28;20209;-75
2022/06/16 06:37:52;;;;;;;22.77;14.02;;;;;;;19.60;55.13;94317.81;5005014;28;20920;-75
2022/06/16 06:40:24;;;;;;;18.58;13.13;;;;;;;19.76;55.64;94325.81;4990608;28;20080;-76
2022/06/16 06:42:50;;;;;;;19.00;13.35;;;;;;;19.90;55.18;94312.56;5005596;28;20060;-76
2022/06/16 06:45:16;;;;;;;19.27;13.32;;;;;;;20.06;53.86;94307.84;5002911;28;20041;-76
2022/06/16 06:47:41;;;;;;;19.70;12.85;;;;;;;20.36;53.79;94299.84;4985342;28;20183;-76
2022/06/16 06:50:08;;;;;;;19.52;13.18;;;;;;;20.55;52.96;94324.06;5005526;28;20045;-75
2022/06/16 06:52:33;;;;;;;20.00;13.18;;;;;;;20.34;54.27;94321.03;5004470;28;20041;-75
2022/06/16 06:54:58;;;;;;;22.95;14.70;;;;;;;19.91;54.24;94313.34;5008680;28;20026;-76
2022/06/16 06:57:27;;;;;;;21.95;13.80;;;;;;;20.19;54.04;94292.25;5004440;28;20148;-76
2022/06/16 06:59:53;;;;;;;19.35;14.52;;;;;;;20.65;53.68;94324.59;5006963;28;20038;-76
2022/06/16 07:02:20;;;;;;;20.33;14.18;;;;;;;21.00;51.83;94311.59;5006036;28;20291;-76
2022/06/16 07:04:46;;;;;;;19.92;12.77;;;;;;;20.68;52.10;94288.75;5008072;28;20080;-76
2022/06/16 07:07:16;;;;;;;20.98;13.32;;;;;;;20.51;52.26;94263.81;5008273;28;20030;-76
2022/06/16 07:09:41;;;;;;;22.13;12.95;;;;;;;20.93;52.77;94282.53;5008570;28;20172;-77
2022/06/16 07:12:13;;;;;;;25.58;13.52;;;;;;;20.50;53.19;94305.47;5008055;28;20033;-76
2022/06/16 07:14:39;;;;;;;19.23;14.07;;;;;;;20.99;52.38;94301.91;5008686;28;20484;-76
2022/06/16 07:17:05;;;;;;;22.35;13.45;;;;;;;20.83;52.27;94285.84;5009600;28;20528;-76
2022/06/16 07:19:33;;;;;;;19.70;12.65;;;;;;;20.77;53.04;94300.06;5008019;28;20048;-76
2022/06/16 07:21:59;;;;;;;21.65;12.57;;;;;;;20.47;54.25;94298.09;5006512;28;20516;-76
2022/06/16 07:24:24;;;;;;;19.75;11.82;;;;;;;20.73;53.32;94289.19;5009643;28;20037;-75
2022/06/16 07:26:49;;;;;;;18.23;12.45;;;;;;;20.27;54.49;94307.44;5009803;28;20061;-76
2022/06/16 07:29:15;;;;;;;20.88;13.32;;;;;;;19.83;55.46;94284.69;5010878;28;20460;-76
2022/06/16 07:31:40;;;;;;;17.40;11.93;;;;;;;20.25;56.19;94312.41;5010889;28;20033;-76
2022/06/16 07:34:05;;;;;;;20.33;13.60;;;;;;;20.13;55.20;94296.38;5001339;28;20487;-75
2022/06/16 07:36:31;;;;;;;21.35;13.13;;;;;;;20.24;55.65;94304.69;5005998;28;20073;-76
2022/06/16 07:38:56;;;;;;;23.00;12.60;;;;;;;20.40;54.83;94310.72;5004783;28;20076;-75
2022/06/16 07:41:31;;;;;;;22.33;13.20;;;;;;;20.37;53.94;94293.31;5015451;28;20041;-75
2022/06/16 07:43:56;;;;;;;20.30;13.40;;;;;;;20.27;55.59;94285.84;5006848;28;20136;-75
2022/06/16 07:46:22;;;;;;;21.80;14.88;;;;;;;20.25;54.31;94280.00;5011907;28;20067;-76
2022/06/16 07:48:47;;;;;;;18.98;13.40;;;;;;;20.43;54.46;94297.28;5011142;28;20025;-76
2022/06/16 07:51:13;;;;;;;16.88;12.27;;;;;;;20.29;54.65;94302.44;5010182;28;20079;-76
2022/06/16 07:53:38;;;;;;;18.92;13.10;;;;;;;20.16;55.27;94295.66;5010907;28;20062;-76
2022/06/16 07:56:04;;;;;;;19.52;14.18;;;;;;;20.50;54.53;94308.16;5009695;28;20037;-76
2022/06/16 07:58:31;;;;;;;22.17;13.48;;;;;;;20.66;52.97;94301.81;5009641;28;20053;-77
2022/06/16 08:00:58;;;;;;;20.67;13.68;;;;;;;20.57;53.78;94280.47;5011752;28;20029;-75
2022/06/16 08:03:26;;;;;;;19.05;13.60;;;;;;;20.71;53.48;94298.81;5013621;28;20048;-75
2022/06/16 08:05:56;;;;;;;15.80;11.95;;;;;;;20.99;51.59;94285.69;5009575;28;20135;-76
2022/06/16 08:08:23;;;;;;;18.52;14.20;;;;;;;21.37;52.89;94307.03;5011517;28;20788;-77
2022/06/16 08:10:49;;;;;;;23.70;12.90;;;;;;;21.15;51.44;94299.81;5009333;28;20085;-76
2022/06/16 08:13:15;;;;;;;19.67;14.63;;;;;;;21.23;51.60;94304.16;5010164;28;20513;-76
2022/06/16 08:15:45;;;;;;;18.63;13.25;;;;;;;21.44;50.63;94293.59;5010800;28;20017;-77
2022/06/16 08:18:12;;;;;;;19.50;13.13;;;;;;;20.96;50.85;94272.91;5009581;28;20320;-77
2022/06/16 08:20:37;;;;;;;19.27;13.48;;;;;;;21.32;50.29;94314.69;5009231;28;20061;-77
2022/06/16 08:23:03;;;;;;;20.85;13.63;;;;;;;21.01;51.16;94289.59;5011788;28;20045;-76
2022/06/16 08:25:30;;;;;;;20.02;13.77;;;;;;;21.19;50.95;94289.81;5010805;28;20418;-77
2022/06/16 08:27:56;;;;;;;19.20;13.30;;;;;;;21.36;52.32;94285.75;5010349;28;20044;-75
2022/06/16 08:30:24;;;;;;;20.88;13.63;;;;;;;21.08;50.60;94299.72;5007499;28;20042;-76
2022/06/16 08:32:50;;;;;;;29.55;13.43;;;;;;;21.22;50.99;94305.28;5010574;28;20065;-77
2022/06/16 08:35:16;;;;;;;18.50;13.35;;;;;;;21.55;50.82;94295.66;5010905;28;20029;-76
2022/06/16 08:37:41;;;;;;;20.55;13.02;;;;;;;21.62;49.91;94312.72;5007786;28;20112;-77
2022/06/16 08:40:08;;;;;;;18.17;13.15;;;;;;;21.59;49.66;94301.88;5010490;28;20041;-76
2022/06/16 08:42:46;;;;;;;21.63;13.30;;;;;;;21.68;49.56;94305.06;5009127;28;20046;-75
2022/06/16 08:45:21;;;;;;;18.23;12.52;;;;;;;21.97;49.60;94312.31;5007786;28;20548;-76
2022/06/16 08:48:12;;;;;;;;;;;;;;;22.07;48.84;94306.22;5009067;28;20484;-76
2022/06/16 08:50:48;;;;;;;17.38;12.55;;;;;;;21.68;47.17;94278.78;5010775;28;19921;-77
2022/06/16 08:53:35;;;;;;;18.25;12.07;;;;;;;21.70;46.88;94316.31;5009995;28;20041;-75
2022/06/16 08:56:08;;;;;;;18.83;12.27;;;;;;;21.66;47.63;94305.44;5007112;28;20033;-75
2022/06/16 08:58:58;;;;;;;19.73;12.68;;;;;;;21.72;47.98;94300.47;5007042;28;20081;-75
2022/06/16 09:01:41;;;;;;;18.92;12.05;;;;;;;21.91;49.22;94296.75;5007399;28;20555;-76
2022/06/16 09:04:13;;;;;;;17.90;13.20;;;;;;;22.03;47.74;94305.41;5008593;28;20188;-77
2022/06/16 09:06:44;;;;;;;20.63;13.30;;;;;;;22.19;48.15;94303.19;5008557;28;20120;-76
2022/06/16 09:12:39;;;;;;;15.45;12.38;;;;;;;22.69;45.92;94306.31;5007335;28;20107;-76
2022/06/16 09:15:20;;;;;;;17.52;12.40;;;;;;;22.46;45.10;94300.34;5005456;28;20038;-76
2022/06/16 09:18:04;;;;;;;16.63;11.50;;;;;;;22.59;45.02;94298.88;5012507;28;20029;-76
2022/06/16 09:20:40;;;;;;;19.05;11.93;;;;;;;22.33;45.42;94290.97;5007261;28;20041;-76
2022/06/16 09:23:06;;;;;;;16.67;12.25;;;;;;;22.16;45.71;94295.84;5006223;28;20638;-76
2022/06/16 09:25:58;;;;;;;15.02;10.77;;;;;;;22.48;44.38;94287.22;5007208;28;20765;-76
2022/06/16 09:29:16;;;;;;;14.98;10.90;;;;;;;22.60;45.07;94284.19;5006337;28;20053;-76
2022/06/16 09:31:47;;;;;;;17.35;11.77;;;;;;;22.38;45.55;94287.91;4997523;28;20508;-73
2022/06/16 09:34:25;;;;;;;16.77;12.52;;;;;;;22.37;45.00;94286.34;5008355;28;20036;-76
2022/06/16 09:36:58;;;;;;;15.85;11.50;;;;;;;22.48;45.16;94279.09;5007978;28;20037;-77
2022/06/16 09:39:31;;;;;;;16.67;11.63;;;;;;;22.46;45.02;94284.09;5007275;28;20037;-76
2022/06/16 09:42:32;;;;;;;14.82;11.43;;;;;;;21.96;45.37;94272.84;5005848;28;20125;-76
2022/06/16 09:45:02;;;;;;;15.82;10.93;;;;;;;21.70;45.62;94262.16;5007374;28;20546;-76
2022/06/16 09:47:37;;;;;;;15.98;10.70;;;;;;;21.83;44.32;94263.44;5009735;28;20041;-76
2022/06/16 09:50:18;;;;;;;14.20;11.13;;;;;;;22.07;43.93;94272.94;5007704;28;20369;-76
2022/06/16 09:53:08;;;;;;;16.15;11.48;;;;;;;22.28;44.17;94271.19;5009571;28;20038;-76
2022/06/16 09:55:48;;;;;;;14.52;11.02;;;;;;;22.46;43.16;94275.97;5005200;28;20045;-76
2022/06/16 09:58:30;;;;;;;15.38;11.68;;;;;;;22.52;43.27;94277.16;5009195;28;20032;-76
2022/06/16 10:01:00;;;;;;;13.52;10.45;;;;;;;22.46;42.54;94267.81;5008852;28;20025;-76
2022/06/16 10:04:00;;;;;;;15.43;10.55;;;;;;;22.05;42.78;94221.84;5009069;28;20129;-77
2022/06/16 10:06:53;;;;;;;13.55;11.20;;;;;;;22.41;43.68;94270.88;5008745;28;20053;-76
2022/06/16 10:09:18;;;;;;;13.55;10.68;;;;;;;22.56;43.36;94267.13;5007266;28;20056;-76
2022/06/16 10:12:03;;;;;;;16.25;12.50;;;;;;;22.41;43.26;94263.53;5008587;28;20449;-77
2022/06/16 10:14:40;;;;;;;16.77;12.25;;;;;;;22.29;42.99;94261.91;5007844;28;20541;-76
2022/06/16 10:17:09;;;;;;;16.52;12.15;;;;;;;22.42;44.06;94261.63;5007884;28;20152;-77
2022/06/16 10:19:39;;;;;;;16.20;11.85;;;;;;;22.58;43.55;94256.69;5005906;28;20034;-76
2022/06/16 10:22:06;;;;;;;17.45;12.13;;;;;;;22.55;43.90;94244.66;5007311;28;20046;-77
2022/06/16 10:24:38;;;;;;;18.10;11.65;;;;;;;22.22;43.62;94242.13;5002343;28;20065;-76
2022/06/16 10:27:04;;;;;;;17.30;11.95;;;;;;;22.21;43.90;94235.91;4988151;28;20455;-76
2022/06/16 10:29:33;;;;;;;14.20;10.80;;;;;;;22.57;43.13;94260.56;4986895;28;20607;-77
2022/06/16 10:32:00;;;;;;;12.52;10.48;;;;;;;22.38;42.57;94249.97;4988436;28;20121;-76
2022/06/16 10:34:38;;;;;;;16.70;11.65;;;;;;;22.38;42.31;94239.91;4987156;28;21063;-76
2022/06/16 10:37:24;;;;;;;16.92;12.07;;;;;;;22.62;41.62;94243.94;4987513;28;20049;-76
2022/06/16 10:40:45;;;;;;;14.75;11.55;;;;;;;22.87;42.87;94236.72;5005989;28;20532;-76
2022/06/16 10:43:14;;;;;;;18.67;11.93;;;;;;;22.69;41.71;94230.41;4984729;28;20046;-77
2022/06/16 10:45:40;;;;;;;16.52;12.13;;;;;;;22.65;42.62;94240.44;4985951;28;20026;-74
2022/06/16 10:48:24;;;;;;;14.70;11.23;;;;;;;22.19;42.95;94232.00;5004507;28;20128;-74
2022/06/16 10:51:09;;;;;;;14.68;11.45;;;;;;;22.27;43.01;94225.50;5006956;28;20041;-76
2022/06/16 10:53:45;;;;;;;15.18;10.70;;;;;;;22.39;41.67;94232.56;5007384;28;20030;-74
2022/06/16 10:56:20;;;;;;;11.98;10.05;;;;;;;22.36;42.79;94225.19;5007233;28;20049;-75
2022/06/16 10:58:58;;;;;;;17.30;12.10;;;;;;;22.70;42.66;94226.53;5011901;28;20400;-75
2022/06/16 11:01:53;;;;;;;14.20;11.23;;;;;;;23.02;42.78;94226.72;5007982;28;20022;-75
2022/06/16 11:04:34;;;;;;;16.17;11.90;;;;;;;23.17;42.32;94226.34;5002256;28;20045;-74
2022/06/16 11:07:01;;;;;;;15.05;12.27;;;;;;;23.01;41.48;94225.94;5006154;28;20037;-75
2022/06/16 11:09:32;;;;;;;14.63;11.30;;;;;;;22.93;41.83;94218.91;5005103;28;20429;-75
2022/06/16 11:12:12;;;;;;;18.38;12.20;;;;;;;23.09;45.83;94219.38;5007604;28;20563;-75
2022/06/16 11:14:53;;;;;;;15.75;12.93;;;;;;;22.73;41.48;94206.81;5009876;28;20041;-75
2022/06/16 11:17:20;;;;;;;15.13;11.23;;;;;;;22.72;42.29;94232.38;5015705;28;20037;-75
2022/06/16 11:19:59;;;;;;;17.73;13.07;;;;;;;22.72;41.57;94207.97;5006431;28;20107;-75
2022/06/16 11:22:31;;;;;;;17.08;12.52;;;;;;;22.82;42.47;94220.00;5007357;28;20054;-74
2022/06/16 11:25:06;;;;;;;13.43;10.85;;;;;;;23.33;43.81;94217.88;5007629;28;20044;-75
2022/06/16 11:27:46;;;;;;;13.75;10.05;;;;;;;22.98;40.14;94209.63;5004963;28;20052;-75
2022/06/16 11:30:35;;;;;;;15.48;11.88;;;;;;;22.93;40.28;94221.63;5006721;28;20045;-75
2022/06/16 11:33:01;;;;;;;11.18;9.18;;;;;;;23.09;39.90;94191.47;5004329;28;20403;-75
2022/06/16 11:35:50;;;;;;;14.10;10.52;;;;;;;23.39;39.79;94210.94;5007965;28;20034;-75
2022/06/16 11:38:32;;;;;;;13.68;9.95;;;;;;;23.35;39.53;94204.72;5006093;28;20071;-75
2022/06/16 11:41:12;;;;;;;13.07;10.50;;;;;;;23.01;40.12;94195.31;5005873;28;20048;-74
2022/06/16 11:43:49;;;;;;;14.20;10.35;;;;;;;23.31;43.01;94203.16;5007786;28;20531;-75
2022/06/16 11:46:24;;;;;;;14.82;12.00;;;;;;;23.44;41.14;94207.06;5008320;28;20022;-74
2022/06/16 11:48:59;;;;;;;16.38;11.13;;;;;;;23.50;41.58;94210.97;5007593;28;20044;-75
2022/06/16 11:51:37;;;;;;;15.35;12.07;;;;;;;23.70;41.87;94198.59;5007979;28;20045;-75
2022/06/16 11:54:11;;;;;;;12.32;9.73;;;;;;;23.97;39.99;94194.31;5005754;28;20129;-76
2022/06/16 11:57:00;;;;;;;13.43;9.93;;;;;;;24.06;39.20;94185.00;5005601;28;20040;-75
2022/06/16 11:59:28;;;;;;;11.82;9.40;;;;;;;24.12;38.36;94205.22;5007381;28;20037;-75
2022/06/16 12:02:17;;;;;;;14.05;10.25;;;;;;;23.94;38.39;94165.22;5008733;28;20041;-75
2022/06/16 12:05:06;;;;;;;12.65;9.73;;;;;;;23.62;39.13;94198.97;5021535;28;20033;-74
2022/06/16 12:07:57;;;;;;;12.52;9.82;;;;;;;23.33;38.50;94179.09;5005636;28;20487;-75